sensor_id;sensor_type;location;lat;lon;timestamp;P1;durP1;ratioP1;P2;durP2;ratioP2
7557;SDS011;3820;51.098;13.716;2023-03-11T00:00:37;1.83;;;1.53;;
7557;SDS011;3820;51.098;13.716;2023-03-11T00:03:06;1.63;;;1.53;;
7557;SDS011;3820;51.098;13.716;2023-03-11T00:05:38;1.67;;;1.57;;
7557;SDS011;3820;51.098;13.716;2023-03-11T00:08:07;1.60;;;1.50;;
7557;SDS011;3820;51.098;13.716;2023-03-11T00:10:36;2.20;;;2.00;;
7557;SDS011;3820;51.098;13.716;2023-03-11T00:13:04;2.40;;;1.73;;
7557;SDS011;3820;51.098;13.716;2023-03-11T00:15:32;1.90;;;1.80;;
7557;SDS011;3820;51.098;13.716;2023-03-11T00:17:59;1.70;;;1.60;;
7557;SDS011;3820;51.098;13.716;2023-03-11T00:20:26;1.90;;;1.80;;
7557;SDS011;3820;51.098;13.716;2023-03-11T00:22:58;2.17;;;1.80;;
7557;SDS011;3820;51.098;13.716;2023-03-11T00:25:27;1.90;;;1.80;;
7557;SDS011;3820;51.098;13.716;2023-03-11T00:27:58;1.90;;;1.80;;
7557;SDS011;3820;51.098;13.716;2023-03-11T00:30:25;2.50;;;1.70;;
7557;SDS011;3820;51.098;13.716;2023-03-11T00:32:54;2.07;;;1.87;;
7557;SDS011;3820;51.098;13.716;2023-03-11T00:35:23;2.23;;;1.83;;
7557;SDS011;3820;51.098;13.716;2023-03-11T00:37:57;2.10;;;1.90;;
7557;SDS011;3820;51.098;13.716;2023-03-11T00:40:25;2.30;;;2.10;;
7557;SDS011;3820;51.098;13.716;2023-03-11T00:42:54;2.50;;;2.30;;
7557;SDS011;3820;51.098;13.716;2023-03-11T00:45:21;2.83;;;2.30;;
7557;SDS011;3820;51.098;13.716;2023-03-11T00:47:49;3.60;;;2.30;;
7557;SDS011;3820;51.098;13.716;2023-03-11T00:50:21;2.73;;;2.40;;
7557;SDS011;3820;51.098;13.716;2023-03-11T00:52:52;3.47;;;2.20;;
7557;SDS011;3820;51.098;13.716;2023-03-11T00:55:21;2.67;;;2.47;;
7557;SDS011;3820;51.098;13.716;2023-03-11T00:58:02;3.20;;;2.27;;
7557;SDS011;3820;51.098;13.716;2023-03-11T01:00:30;2.23;;;2.03;;
7557;SDS011;3820;51.098;13.716;2023-03-11T01:02:59;2.30;;;2.10;;
7557;SDS011;3820;51.098;13.716;2023-03-11T01:05:27;2.43;;;2.23;;
7557;SDS011;3820;51.098;13.716;2023-03-11T01:07:56;2.20;;;2.00;;
7557;SDS011;3820;51.098;13.716;2023-03-11T01:10:22;2.33;;;2.10;;
7557;SDS011;3820;51.098;13.716;2023-03-11T01:12:49;2.57;;;2.30;;
7557;SDS011;3820;51.098;13.716;2023-03-11T01:15:20;2.20;;;2.00;;
7557;SDS011;3820;51.098;13.716;2023-03-11T01:17:49;2.10;;;1.80;;
7557;SDS011;3820;51.098;13.716;2023-03-11T01:20:15;2.10;;;2.00;;
7557;SDS011;3820;51.098;13.716;2023-03-11T01:22:42;2.60;;;2.40;;
7557;SDS011;3820;51.098;13.716;2023-03-11T01:25:10;2.27;;;2.07;;
7557;SDS011;3820;51.098;13.716;2023-03-11T01:27:39;2.93;;;2.03;;
7557;SDS011;3820;51.098;13.716;2023-03-11T01:30:06;2.63;;;2.43;;
7557;SDS011;3820;51.098;13.716;2023-03-11T01:32:33;3.00;;;2.70;;
7557;SDS011;3820;51.098;13.716;2023-03-11T01:35:00;2.60;;;2.40;;
7557;SDS011;3820;51.098;13.716;2023-03-11T01:37:27;2.33;;;2.13;;
7557;SDS011;3820;51.098;13.716;2023-03-11T01:39:53;2.60;;;2.40;;
7557;SDS011;3820;51.098;13.716;2023-03-11T01:42:20;3.80;;;2.60;;
7557;SDS011;3820;51.098;13.716;2023-03-11T01:44:46;4.03;;;2.40;;
7557;SDS011;3820;51.098;13.716;2023-03-11T01:49:40;2.90;;;2.70;;
7557;SDS011;3820;51.098;13.716;2023-03-11T01:52:07;3.17;;;2.87;;
7557;SDS011;3820;51.098;13.716;2023-03-11T01:54:35;3.20;;;2.90;;
7557;SDS011;3820;51.098;13.716;2023-03-11T01:57:06;4.80;;;3.03;;
7557;SDS011;3820;51.098;13.716;2023-03-11T01:59:36;3.37;;;3.07;;
7557;SDS011;3820;51.098;13.716;2023-03-11T02:02:24;3.97;;;3.20;;
7557;SDS011;3820;51.098;13.716;2023-03-11T02:04:54;3.60;;;3.30;;
7557;SDS011;3820;51.098;13.716;2023-03-11T02:07:22;3.47;;;3.17;;
7557;SDS011;3820;51.098;13.716;2023-03-11T02:09:48;3.93;;;3.57;;
7557;SDS011;3820;51.098;13.716;2023-03-11T02:12:15;4.63;;;3.87;;
7557;SDS011;3820;51.098;13.716;2023-03-11T02:14:43;4.67;;;3.47;;
7557;SDS011;3820;51.098;13.716;2023-03-11T02:17:11;3.97;;;3.57;;
7557;SDS011;3820;51.098;13.716;2023-03-11T02:19:42;3.90;;;3.60;;
7557;SDS011;3820;51.098;13.716;2023-03-11T02:22:32;4.10;;;3.70;;
7557;SDS011;3820;51.098;13.716;2023-03-11T02:27:37;5.00;;;4.50;;
7557;SDS011;3820;51.098;13.716;2023-03-11T02:30:07;5.23;;;4.73;;
7557;SDS011;3820;51.098;13.716;2023-03-11T02:32:35;5.50;;;4.93;;
7557;SDS011;3820;51.098;13.716;2023-03-11T02:35:04;5.43;;;4.87;;
7557;SDS011;3820;51.098;13.716;2023-03-11T02:37:32;5.37;;;4.67;;
7557;SDS011;3820;51.098;13.716;2023-03-11T02:42:47;6.53;;;5.03;;
7557;SDS011;3820;51.098;13.716;2023-03-11T02:45:15;5.43;;;4.90;;
7557;SDS011;3820;51.098;13.716;2023-03-11T02:47:43;6.30;;;4.87;;
7557;SDS011;3820;51.098;13.716;2023-03-11T02:50:11;5.60;;;4.77;;
7557;SDS011;3820;51.098;13.716;2023-03-11T02:52:39;7.33;;;5.03;;
7557;SDS011;3820;51.098;13.716;2023-03-11T02:55:07;5.77;;;4.47;;
7557;SDS011;3820;51.098;13.716;2023-03-11T02:57:35;5.17;;;4.40;;
7557;SDS011;3820;51.098;13.716;2023-03-11T03:00:02;5.07;;;4.33;;
7557;SDS011;3820;51.098;13.716;2023-03-11T03:02:36;5.27;;;4.50;;
7557;SDS011;3820;51.098;13.716;2023-03-11T03:05:03;5.73;;;4.67;;
7557;SDS011;3820;51.098;13.716;2023-03-11T03:07:31;7.00;;;4.37;;
7557;SDS011;3820;51.098;13.716;2023-03-11T03:09:58;6.10;;;5.20;;
7557;SDS011;3820;51.098;13.716;2023-03-11T03:12:25;5.70;;;4.63;;
7557;SDS011;3820;51.098;13.716;2023-03-11T03:14:52;6.07;;;4.60;;
7557;SDS011;3820;51.098;13.716;2023-03-11T03:17:18;5.57;;;4.67;;
7557;SDS011;3820;51.098;13.716;2023-03-11T03:19:46;8.27;;;4.43;;
7557;SDS011;3820;51.098;13.716;2023-03-11T03:22:12;5.70;;;4.60;;
7557;SDS011;3820;51.098;13.716;2023-03-11T03:24:39;6.57;;;4.50;;
7557;SDS011;3820;51.098;13.716;2023-03-11T03:27:06;5.53;;;4.93;;
7557;SDS011;3820;51.098;13.716;2023-03-11T03:29:32;5.40;;;4.90;;
7557;SDS011;3820;51.098;13.716;2023-03-11T03:31:59;5.43;;;4.90;;
7557;SDS011;3820;51.098;13.716;2023-03-11T03:34:26;6.37;;;5.50;;
7557;SDS011;3820;51.098;13.716;2023-03-11T03:36:52;8.83;;;6.30;;
7557;SDS011;3820;51.098;13.716;2023-03-11T03:39:19;7.43;;;6.43;;
7557;SDS011;3820;51.098;13.716;2023-03-11T03:41:45;7.90;;;6.80;;
7557;SDS011;3820;51.098;13.716;2023-03-11T03:44:12;9.90;;;7.27;;
7557;SDS011;3820;51.098;13.716;2023-03-11T03:46:39;10.70;;;7.97;;
7557;SDS011;3820;51.098;13.716;2023-03-11T03:49:06;10.03;;;7.97;;
7557;SDS011;3820;51.098;13.716;2023-03-11T03:51:33;11.67;;;8.20;;
7557;SDS011;3820;51.098;13.716;2023-03-11T03:53:59;10.67;;;8.37;;
7557;SDS011;3820;51.098;13.716;2023-03-11T03:56:26;13.67;;;9.67;;
7557;SDS011;3820;51.098;13.716;2023-03-11T03:58:52;11.87;;;8.23;;
7557;SDS011;3820;51.098;13.716;2023-03-11T04:01:19;11.23;;;8.57;;
7557;SDS011;3820;51.098;13.716;2023-03-11T04:03:46;12.30;;;8.93;;
7557;SDS011;3820;51.098;13.716;2023-03-11T04:06:20;15.43;;;9.90;;
7557;SDS011;3820;51.098;13.716;2023-03-11T04:08:52;13.37;;;9.33;;
7557;SDS011;3820;51.098;13.716;2023-03-11T04:11:20;13.13;;;9.63;;
7557;SDS011;3820;51.098;13.716;2023-03-11T04:13:46;15.67;;;10.40;;
7557;SDS011;3820;51.098;13.716;2023-03-11T04:16:15;12.57;;;9.40;;
7557;SDS011;3820;51.098;13.716;2023-03-11T04:18:43;15.40;;;10.20;;
7557;SDS011;3820;51.098;13.716;2023-03-11T04:21:09;14.33;;;10.60;;
7557;SDS011;3820;51.098;13.716;2023-03-11T04:23:36;16.17;;;10.87;;
7557;SDS011;3820;51.098;13.716;2023-03-11T04:26:03;17.23;;;11.07;;
7557;SDS011;3820;51.098;13.716;2023-03-11T04:28:29;16.83;;;11.80;;
7557;SDS011;3820;51.098;13.716;2023-03-11T04:30:56;17.57;;;12.20;;
7557;SDS011;3820;51.098;13.716;2023-03-11T04:33:23;17.40;;;12.50;;
7557;SDS011;3820;51.098;13.716;2023-03-11T04:35:50;21.37;;;13.23;;
7557;SDS011;3820;51.098;13.716;2023-03-11T04:38:17;19.80;;;13.20;;
7557;SDS011;3820;51.098;13.716;2023-03-11T04:40:43;19.83;;;13.63;;
7557;SDS011;3820;51.098;13.716;2023-03-11T04:43:10;20.07;;;13.40;;
7557;SDS011;3820;51.098;13.716;2023-03-11T04:45:37;17.60;;;12.67;;
7557;SDS011;3820;51.098;13.716;2023-03-11T04:48:05;19.90;;;13.47;;
7557;SDS011;3820;51.098;13.716;2023-03-11T04:50:32;22.63;;;14.40;;
7557;SDS011;3820;51.098;13.716;2023-03-11T04:52:58;21.93;;;15.27;;
7557;SDS011;3820;51.098;13.716;2023-03-11T04:55:25;20.67;;;14.20;;
7557;SDS011;3820;51.098;13.716;2023-03-11T04:57:51;20.77;;;14.20;;
7557;SDS011;3820;51.098;13.716;2023-03-11T05:00:18;22.87;;;15.00;;
7557;SDS011;3820;51.098;13.716;2023-03-11T05:02:50;20.13;;;13.67;;
7557;SDS011;3820;51.098;13.716;2023-03-11T05:05:17;20.53;;;13.37;;
7557;SDS011;3820;51.098;13.716;2023-03-11T05:07:47;19.03;;;13.17;;
7557;SDS011;3820;51.098;13.716;2023-03-11T05:10:15;18.27;;;13.70;;
7557;SDS011;3820;51.098;13.716;2023-03-11T05:12:48;19.47;;;13.93;;
7557;SDS011;3820;51.098;13.716;2023-03-11T05:15:15;19.67;;;13.87;;
7557;SDS011;3820;51.098;13.716;2023-03-11T05:17:42;20.33;;;13.47;;
7557;SDS011;3820;51.098;13.716;2023-03-11T05:20:09;18.30;;;13.00;;
7557;SDS011;3820;51.098;13.716;2023-03-11T05:22:36;20.30;;;13.23;;
7557;SDS011;3820;51.098;13.716;2023-03-11T05:25:04;18.37;;;13.50;;
7557;SDS011;3820;51.098;13.716;2023-03-11T05:27:31;17.63;;;12.67;;
7557;SDS011;3820;51.098;13.716;2023-03-11T05:29:58;21.03;;;14.23;;
7557;SDS011;3820;51.098;13.716;2023-03-11T05:32:24;17.07;;;12.33;;
7557;SDS011;3820;51.098;13.716;2023-03-11T05:34:51;17.97;;;12.97;;
7557;SDS011;3820;51.098;13.716;2023-03-11T05:37:18;19.13;;;12.73;;
7557;SDS011;3820;51.098;13.716;2023-03-11T05:39:45;16.60;;;11.97;;
7557;SDS011;3820;51.098;13.716;2023-03-11T05:42:12;17.53;;;13.23;;
7557;SDS011;3820;51.098;13.716;2023-03-11T05:44:39;16.57;;;12.07;;
7557;SDS011;3820;51.098;13.716;2023-03-11T05:47:06;17.77;;;12.77;;
7557;SDS011;3820;51.098;13.716;2023-03-11T05:49:33;17.47;;;13.17;;
7557;SDS011;3820;51.098;13.716;2023-03-11T05:52:00;17.80;;;12.70;;
7557;SDS011;3820;51.098;13.716;2023-03-11T05:54:26;24.40;;;12.50;;
7557;SDS011;3820;51.098;13.716;2023-03-11T05:56:53;17.70;;;12.87;;
7557;SDS011;3820;51.098;13.716;2023-03-11T05:59:21;17.40;;;12.90;;
7557;SDS011;3820;51.098;13.716;2023-03-11T06:01:48;18.33;;;13.10;;
7557;SDS011;3820;51.098;13.716;2023-03-11T06:04:15;18.23;;;13.37;;
7557;SDS011;3820;51.098;13.716;2023-03-11T06:06:42;17.07;;;12.90;;
7557;SDS011;3820;51.098;13.716;2023-03-11T06:09:10;18.33;;;13.07;;
7557;SDS011;3820;51.098;13.716;2023-03-11T06:11:38;18.17;;;13.43;;
7557;SDS011;3820;51.098;13.716;2023-03-11T06:14:04;17.77;;;13.30;;
7557;SDS011;3820;51.098;13.716;2023-03-11T06:16:31;17.30;;;13.03;;
7557;SDS011;3820;51.098;13.716;2023-03-11T06:18:58;16.40;;;12.57;;
7557;SDS011;3820;51.098;13.716;2023-03-11T06:21:27;17.57;;;13.43;;
7557;SDS011;3820;51.098;13.716;2023-03-11T06:23:54;19.07;;;13.27;;
7557;SDS011;3820;51.098;13.716;2023-03-11T06:26:21;19.90;;;14.37;;
7557;SDS011;3820;51.098;13.716;2023-03-11T06:28:49;17.17;;;13.13;;
7557;SDS011;3820;51.098;13.716;2023-03-11T06:33:53;20.83;;;14.53;;
7557;SDS011;3820;51.098;13.716;2023-03-11T06:36:24;20.83;;;14.70;;
7557;SDS011;3820;51.098;13.716;2023-03-11T06:38:51;20.87;;;14.50;;
7557;SDS011;3820;51.098;13.716;2023-03-11T06:41:19;20.90;;;15.20;;
7557;SDS011;3820;51.098;13.716;2023-03-11T06:43:45;22.63;;;15.20;;
7557;SDS011;3820;51.098;13.716;2023-03-11T06:46:16;20.93;;;14.57;;
7557;SDS011;3820;51.098;13.716;2023-03-11T06:48:44;21.97;;;15.17;;
7557;SDS011;3820;51.098;13.716;2023-03-11T06:51:17;25.57;;;16.40;;
7557;SDS011;3820;51.098;13.716;2023-03-11T06:53:46;23.33;;;14.93;;
7557;SDS011;3820;51.098;13.716;2023-03-11T06:56:14;21.73;;;15.27;;
7557;SDS011;3820;51.098;13.716;2023-03-11T06:58:41;22.63;;;15.43;;
7557;SDS011;3820;51.098;13.716;2023-03-11T07:01:12;21.93;;;15.17;;
7557;SDS011;3820;51.098;13.716;2023-03-11T07:03:47;22.27;;;15.10;;
7557;SDS011;3820;51.098;13.716;2023-03-11T07:06:16;22.67;;;14.07;;
7557;SDS011;3820;51.098;13.716;2023-03-11T07:08:48;21.63;;;15.10;;
7557;SDS011;3820;51.098;13.716;2023-03-11T07:11:16;23.27;;;15.63;;
7557;SDS011;3820;51.098;13.716;2023-03-11T07:13:45;21.17;;;14.43;;
7557;SDS011;3820;51.098;13.716;2023-03-11T07:16:13;22.03;;;15.00;;
7557;SDS011;3820;51.098;13.716;2023-03-11T07:18:41;20.33;;;14.60;;
7557;SDS011;3820;51.098;13.716;2023-03-11T07:21:10;22.23;;;15.10;;
7557;SDS011;3820;51.098;13.716;2023-03-11T07:23:38;22.27;;;14.97;;
7557;SDS011;3820;51.098;13.716;2023-03-11T07:26:06;21.57;;;14.80;;
7557;SDS011;3820;51.098;13.716;2023-03-11T07:28:34;30.40;;;19.03;;
7557;SDS011;3820;51.098;13.716;2023-03-11T07:33:59;27.00;;;16.97;;
7557;SDS011;3820;51.098;13.716;2023-03-11T07:36:28;24.37;;;17.13;;
7557;SDS011;3820;51.098;13.716;2023-03-11T07:38:55;30.07;;;20.17;;
7557;SDS011;3820;51.098;13.716;2023-03-11T07:41:30;27.73;;;17.40;;
7557;SDS011;3820;51.098;13.716;2023-03-11T07:43:58;24.57;;;16.37;;
7557;SDS011;3820;51.098;13.716;2023-03-11T07:46:26;24.00;;;16.07;;
7557;SDS011;3820;51.098;13.716;2023-03-11T07:48:53;23.53;;;15.77;;
7557;SDS011;3820;51.098;13.716;2023-03-11T07:51:24;25.40;;;17.57;;
7557;SDS011;3820;51.098;13.716;2023-03-11T07:53:53;25.47;;;16.67;;
7557;SDS011;3820;51.098;13.716;2023-03-11T07:56:21;22.70;;;14.90;;
7557;SDS011;3820;51.098;13.716;2023-03-11T07:58:49;21.40;;;14.73;;
7557;SDS011;3820;51.098;13.716;2023-03-11T08:01:20;21.87;;;15.67;;
7557;SDS011;3820;51.098;13.716;2023-03-11T08:03:49;22.50;;;15.00;;
7557;SDS011;3820;51.098;13.716;2023-03-11T08:06:19;21.50;;;15.10;;
7557;SDS011;3820;51.098;13.716;2023-03-11T08:08:47;22.43;;;14.93;;
7557;SDS011;3820;51.098;13.716;2023-03-11T08:11:17;21.87;;;14.73;;
7557;SDS011;3820;51.098;13.716;2023-03-11T08:13:45;23.23;;;15.07;;
7557;SDS011;3820;51.098;13.716;2023-03-11T08:16:13;21.10;;;13.87;;
7557;SDS011;3820;51.098;13.716;2023-03-11T08:18:41;25.20;;;15.67;;
7557;SDS011;3820;51.098;13.716;2023-03-11T08:21:13;22.73;;;15.53;;
7557;SDS011;3820;51.098;13.716;2023-03-11T08:23:41;24.37;;;16.03;;
7557;SDS011;3820;51.098;13.716;2023-03-11T08:26:10;24.90;;;15.53;;
7557;SDS011;3820;51.098;13.716;2023-03-11T08:28:38;26.00;;;17.27;;
7557;SDS011;3820;51.098;13.716;2023-03-11T08:31:14;24.90;;;15.70;;
7557;SDS011;3820;51.098;13.716;2023-03-11T08:33:43;27.60;;;17.33;;
7557;SDS011;3820;51.098;13.716;2023-03-11T08:36:11;28.67;;;18.27;;
7557;SDS011;3820;51.098;13.716;2023-03-11T08:38:38;25.93;;;16.97;;
7557;SDS011;3820;51.098;13.716;2023-03-11T08:41:05;26.73;;;18.03;;
7557;SDS011;3820;51.098;13.716;2023-03-11T08:43:31;29.97;;;19.50;;
7557;SDS011;3820;51.098;13.716;2023-03-11T08:45:59;27.87;;;18.80;;
7557;SDS011;3820;51.098;13.716;2023-03-11T08:48:26;27.13;;;17.97;;
7557;SDS011;3820;51.098;13.716;2023-03-11T08:50:53;27.57;;;18.20;;
7557;SDS011;3820;51.098;13.716;2023-03-11T08:53:21;24.43;;;16.83;;
7557;SDS011;3820;51.098;13.716;2023-03-11T08:55:48;28.53;;;18.30;;
7557;SDS011;3820;51.098;13.716;2023-03-11T08:58:16;27.80;;;18.37;;
7557;SDS011;3820;51.098;13.716;2023-03-11T09:00:43;23.30;;;16.40;;
7557;SDS011;3820;51.098;13.716;2023-03-11T09:03:10;25.23;;;16.73;;
7557;SDS011;3820;51.098;13.716;2023-03-11T09:05:36;23.77;;;16.03;;
7557;SDS011;3820;51.098;13.716;2023-03-11T09:08:03;26.67;;;17.27;;
7557;SDS011;3820;51.098;13.716;2023-03-11T09:10:31;25.53;;;16.33;;
7557;SDS011;3820;51.098;13.716;2023-03-11T09:12:57;24.97;;;15.60;;
7557;SDS011;3820;51.098;13.716;2023-03-11T09:15:24;24.87;;;16.67;;
7557;SDS011;3820;51.098;13.716;2023-03-11T09:17:51;26.50;;;17.20;;
7557;SDS011;3820;51.098;13.716;2023-03-11T09:20:18;25.90;;;17.40;;
7557;SDS011;3820;51.098;13.716;2023-03-11T09:22:45;27.20;;;17.60;;
7557;SDS011;3820;51.098;13.716;2023-03-11T09:25:12;27.27;;;16.73;;
7557;SDS011;3820;51.098;13.716;2023-03-11T09:27:39;26.23;;;17.67;;
7557;SDS011;3820;51.098;13.716;2023-03-11T09:30:07;28.77;;;17.30;;
7557;SDS011;3820;51.098;13.716;2023-03-11T09:32:35;30.47;;;17.73;;
7557;SDS011;3820;51.098;13.716;2023-03-11T09:35:02;28.87;;;18.20;;
7557;SDS011;3820;51.098;13.716;2023-03-11T09:37:29;28.53;;;18.63;;
7557;SDS011;3820;51.098;13.716;2023-03-11T09:39:55;27.47;;;18.50;;
7557;SDS011;3820;51.098;13.716;2023-03-11T09:42:36;33.13;;;19.10;;
7557;SDS011;3820;51.098;13.716;2023-03-11T09:45:15;32.30;;;19.73;;
7557;SDS011;3820;51.098;13.716;2023-03-11T09:50:58;28.60;;;19.40;;
7557;SDS011;3820;51.098;13.716;2023-03-11T09:56:12;31.43;;;19.57;;
7557;SDS011;3820;51.098;13.716;2023-03-11T10:01:26;29.53;;;18.77;;
7557;SDS011;3820;51.098;13.716;2023-03-11T10:03:56;28.80;;;17.53;;
7557;SDS011;3820;51.098;13.716;2023-03-11T10:06:32;28.33;;;19.20;;
7557;SDS011;3820;51.098;13.716;2023-03-11T10:11:45;27.67;;;17.97;;
7557;SDS011;3820;51.098;13.716;2023-03-11T10:17:47;27.37;;;17.77;;
7557;SDS011;3820;51.098;13.716;2023-03-11T10:26:02;21.43;;;15.80;;
7557;SDS011;3820;51.098;13.716;2023-03-11T10:28:35;22.77;;;16.17;;
7557;SDS011;3820;51.098;13.716;2023-03-11T10:31:26;25.83;;;17.20;;
7557;SDS011;3820;51.098;13.716;2023-03-11T10:36:38;21.10;;;15.10;;
7557;SDS011;3820;51.098;13.716;2023-03-11T10:39:12;22.27;;;15.13;;
7557;SDS011;3820;51.098;13.716;2023-03-11T10:46:55;20.30;;;13.70;;
7557;SDS011;3820;51.098;13.716;2023-03-11T10:49:22;20.87;;;13.93;;
7557;SDS011;3820;51.098;13.716;2023-03-11T10:51:49;19.57;;;15.07;;
7557;SDS011;3820;51.098;13.716;2023-03-11T10:54:25;18.17;;;13.23;;
7557;SDS011;3820;51.098;13.716;2023-03-11T10:57:05;17.60;;;13.20;;
7557;SDS011;3820;51.098;13.716;2023-03-11T10:59:46;17.27;;;13.03;;
7557;SDS011;3820;51.098;13.716;2023-03-11T11:02:24;19.33;;;13.57;;
7557;SDS011;3820;51.098;13.716;2023-03-11T11:07:44;22.40;;;15.53;;
7557;SDS011;3820;51.098;13.716;2023-03-11T11:10:19;19.20;;;13.67;;
7557;SDS011;3820;51.098;13.716;2023-03-11T11:12:51;16.20;;;11.80;;
7557;SDS011;3820;51.098;13.716;2023-03-11T11:18:00;20.17;;;15.00;;
7557;SDS011;3820;51.098;13.716;2023-03-11T11:20:30;18.47;;;13.57;;
7557;SDS011;3820;51.098;13.716;2023-03-11T11:22:59;21.70;;;14.90;;
7557;SDS011;3820;51.098;13.716;2023-03-11T11:27:55;18.70;;;13.43;;
7557;SDS011;3820;51.098;13.716;2023-03-11T11:30:26;17.77;;;12.87;;
7557;SDS011;3820;51.098;13.716;2023-03-11T11:32:54;16.73;;;12.10;;
7557;SDS011;3820;51.098;13.716;2023-03-11T11:35:23;14.53;;;12.00;;
7557;SDS011;3820;51.098;13.716;2023-03-11T11:37:51;14.63;;;10.77;;
7557;SDS011;3820;51.098;13.716;2023-03-11T11:40:26;13.97;;;11.20;;
7557;SDS011;3820;51.098;13.716;2023-03-11T11:42:55;11.87;;;10.33;;
7557;SDS011;3820;51.098;13.716;2023-03-11T11:48:03;11.80;;;9.40;;
7557;SDS011;3820;51.098;13.716;2023-03-11T11:50:35;9.13;;;7.70;;
7557;SDS011;3820;51.098;13.716;2023-03-11T11:53:18;10.13;;;8.23;;
7557;SDS011;3820;51.098;13.716;2023-03-11T11:55:51;11.23;;;8.43;;
7557;SDS011;3820;51.098;13.716;2023-03-11T11:58:22;11.63;;;8.60;;
7557;SDS011;3820;51.098;13.716;2023-03-11T12:03:51;11.13;;;8.70;;
7557;SDS011;3820;51.098;13.716;2023-03-11T12:07:00;15.10;;;10.37;;
7557;SDS011;3820;51.098;13.716;2023-03-11T12:12:03;12.30;;;9.97;;
7557;SDS011;3820;51.098;13.716;2023-03-11T12:17:34;12.90;;;10.17;;
7557;SDS011;3820;51.098;13.716;2023-03-11T12:28:58;10.83;;;9.00;;
7557;SDS011;3820;51.098;13.716;2023-03-11T12:31:17;9.30;;;7.57;;
7557;SDS011;3820;51.098;13.716;2023-03-11T12:33:48;13.00;;;9.07;;
7557;SDS011;3820;51.098;13.716;2023-03-11T12:36:24;13.93;;;8.80;;
7557;SDS011;3820;51.098;13.716;2023-03-11T12:38:54;13.17;;;9.80;;
7557;SDS011;3820;51.098;13.716;2023-03-11T12:44:19;13.20;;;10.10;;
7557;SDS011;3820;51.098;13.716;2023-03-11T12:49:29;15.63;;;10.77;;
7557;SDS011;3820;51.098;13.716;2023-03-11T12:54:48;14.87;;;10.27;;
7557;SDS011;3820;51.098;13.716;2023-03-11T12:57:47;16.30;;;10.97;;
7557;SDS011;3820;51.098;13.716;2023-03-11T13:11:27;13.27;;;10.13;;
7557;SDS011;3820;51.098;13.716;2023-03-11T13:14:09;14.50;;;10.63;;
7557;SDS011;3820;51.098;13.716;2023-03-11T13:16:54;14.53;;;10.57;;
7557;SDS011;3820;51.098;13.716;2023-03-11T13:21:57;13.17;;;9.07;;
7557;SDS011;3820;51.098;13.716;2023-03-11T13:29:28;11.73;;;8.33;;
7557;SDS011;3820;51.098;13.716;2023-03-11T13:32:32;11.97;;;8.90;;
7557;SDS011;3820;51.098;13.716;2023-03-11T13:40:38;10.13;;;8.10;;
7557;SDS011;3820;51.098;13.716;2023-03-11T13:43:19;11.73;;;8.60;;
7557;SDS011;3820;51.098;13.716;2023-03-11T13:46:00;12.43;;;8.83;;
7557;SDS011;3820;51.098;13.716;2023-03-11T13:48:31;12.23;;;8.80;;
7557;SDS011;3820;51.098;13.716;2023-03-11T13:51:03;12.53;;;8.80;;
7557;SDS011;3820;51.098;13.716;2023-03-11T13:53:36;12.47;;;8.80;;
7557;SDS011;3820;51.098;13.716;2023-03-11T13:56:05;11.60;;;8.07;;
7557;SDS011;3820;51.098;13.716;2023-03-11T13:58:31;10.83;;;8.47;;
7557;SDS011;3820;51.098;13.716;2023-03-11T14:00:59;10.07;;;8.70;;
7557;SDS011;3820;51.098;13.716;2023-03-11T14:03:34;10.07;;;8.17;;
7557;SDS011;3820;51.098;13.716;2023-03-11T14:06:07;10.73;;;8.17;;
7557;SDS011;3820;51.098;13.716;2023-03-11T14:08:35;7.83;;;6.77;;
7557;SDS011;3820;51.098;13.716;2023-03-11T14:11:14;10.50;;;7.27;;
7557;SDS011;3820;51.098;13.716;2023-03-11T14:13:46;10.20;;;8.60;;
7557;SDS011;3820;51.098;13.716;2023-03-11T14:19:16;9.50;;;7.33;;
7557;SDS011;3820;51.098;13.716;2023-03-11T14:21:44;8.63;;;6.83;;
7557;SDS011;3820;51.098;13.716;2023-03-11T14:24:15;8.83;;;6.40;;
7557;SDS011;3820;51.098;13.716;2023-03-11T14:26:43;9.23;;;7.03;;
7557;SDS011;3820;51.098;13.716;2023-03-11T14:29:11;8.27;;;6.90;;
7557;SDS011;3820;51.098;13.716;2023-03-11T14:31:42;9.07;;;6.90;;
7557;SDS011;3820;51.098;13.716;2023-03-11T14:39:24;8.97;;;7.70;;
7557;SDS011;3820;51.098;13.716;2023-03-11T14:41:51;9.90;;;7.20;;
7557;SDS011;3820;51.098;13.716;2023-03-11T14:44:20;9.37;;;7.30;;
7557;SDS011;3820;51.098;13.716;2023-03-11T14:46:48;8.23;;;7.37;;
7557;SDS011;3820;51.098;13.716;2023-03-11T14:49:18;11.20;;;7.43;;
7557;SDS011;3820;51.098;13.716;2023-03-11T14:51:54;10.57;;;7.10;;
7557;SDS011;3820;51.098;13.716;2023-03-11T14:54:28;9.87;;;7.40;;
7557;SDS011;3820;51.098;13.716;2023-03-11T14:57:02;10.23;;;7.50;;
7557;SDS011;3820;51.098;13.716;2023-03-11T14:59:30;9.03;;;6.97;;
7557;SDS011;3820;51.098;13.716;2023-03-11T15:01:59;9.67;;;7.30;;
7557;SDS011;3820;51.098;13.716;2023-03-11T15:04:48;8.40;;;6.90;;
7557;SDS011;3820;51.098;13.716;2023-03-11T15:07:16;8.83;;;6.57;;
7557;SDS011;3820;51.098;13.716;2023-03-11T15:09:44;8.30;;;6.60;;
7557;SDS011;3820;51.098;13.716;2023-03-11T15:15:01;10.60;;;7.40;;
7557;SDS011;3820;51.098;13.716;2023-03-11T15:17:28;8.70;;;7.00;;
7557;SDS011;3820;51.098;13.716;2023-03-11T15:20:23;9.73;;;7.00;;
7557;SDS011;3820;51.098;13.716;2023-03-11T15:22:59;10.97;;;7.13;;
7557;SDS011;3820;51.098;13.716;2023-03-11T15:25:28;11.77;;;7.17;;
7557;SDS011;3820;51.098;13.716;2023-03-11T15:31:13;10.73;;;7.83;;
7557;SDS011;3820;51.098;13.716;2023-03-11T15:33:52;10.73;;;6.90;;
7557;SDS011;3820;51.098;13.716;2023-03-11T15:36:33;9.17;;;7.10;;
7557;SDS011;3820;51.098;13.716;2023-03-11T15:39:11;10.10;;;7.13;;
7557;SDS011;3820;51.098;13.716;2023-03-11T15:41:47;9.37;;;7.70;;
7557;SDS011;3820;51.098;13.716;2023-03-11T15:46:52;9.23;;;7.00;;
7557;SDS011;3820;51.098;13.716;2023-03-11T15:49:19;10.13;;;7.27;;
7557;SDS011;3820;51.098;13.716;2023-03-11T15:51:45;9.43;;;7.27;;
7557;SDS011;3820;51.098;13.716;2023-03-11T15:54:12;10.30;;;7.20;;
7557;SDS011;3820;51.098;13.716;2023-03-11T15:56:39;9.83;;;7.23;;
7557;SDS011;3820;51.098;13.716;2023-03-11T15:59:08;10.63;;;7.13;;
7557;SDS011;3820;51.098;13.716;2023-03-11T16:01:38;11.40;;;7.23;;
7557;SDS011;3820;51.098;13.716;2023-03-11T16:04:08;9.77;;;6.77;;
7557;SDS011;3820;51.098;13.716;2023-03-11T16:06:40;7.70;;;6.90;;
7557;SDS011;3820;51.098;13.716;2023-03-11T16:09:07;10.57;;;7.20;;
7557;SDS011;3820;51.098;13.716;2023-03-11T16:11:35;9.83;;;6.90;;
7557;SDS011;3820;51.098;13.716;2023-03-11T16:14:02;8.17;;;6.77;;
7557;SDS011;3820;51.098;13.716;2023-03-11T16:16:29;8.80;;;6.93;;
7557;SDS011;3820;51.098;13.716;2023-03-11T16:18:56;10.83;;;6.40;;
7557;SDS011;3820;51.098;13.716;2023-03-11T16:21:24;8.97;;;6.50;;
7557;SDS011;3820;51.098;13.716;2023-03-11T16:23:55;9.17;;;6.67;;
7557;SDS011;3820;51.098;13.716;2023-03-11T16:26:22;9.43;;;6.67;;
7557;SDS011;3820;51.098;13.716;2023-03-11T16:28:48;9.13;;;7.07;;
7557;SDS011;3820;51.098;13.716;2023-03-11T16:31:15;9.10;;;7.07;;
7557;SDS011;3820;51.098;13.716;2023-03-11T16:33:42;9.57;;;7.10;;
7557;SDS011;3820;51.098;13.716;2023-03-11T16:36:09;9.93;;;7.43;;
7557;SDS011;3820;51.098;13.716;2023-03-11T16:38:44;9.77;;;8.00;;
7557;SDS011;3820;51.098;13.716;2023-03-11T16:41:12;14.47;;;9.40;;
7557;SDS011;3820;51.098;13.716;2023-03-11T16:43:39;13.73;;;10.37;;
7557;SDS011;3820;51.098;13.716;2023-03-11T16:46:08;11.53;;;8.80;;
7557;SDS011;3820;51.098;13.716;2023-03-11T16:48:34;13.47;;;8.80;;
7557;SDS011;3820;51.098;13.716;2023-03-11T16:51:01;11.77;;;8.03;;
7557;SDS011;3820;51.098;13.716;2023-03-11T16:53:27;10.37;;;7.67;;
7557;SDS011;3820;51.098;13.716;2023-03-11T16:55:54;13.40;;;8.43;;
7557;SDS011;3820;51.098;13.716;2023-03-11T16:58:20;11.60;;;7.93;;